Ewell, Maryland
Current Conditions -  °F | °C
As of 7:17 PM on Saturday 22 Nov 2014 (Local Time) from KTGI Reporting Station
Clear Clear  
Wind Chill: 40°   Ceiling: Unl
Heat Index: 46°   Visibility: 10mi
Dew Point: 30°   Wind: 15mph
Humidity: 53%   Direction: 220°SW
Pressure: 30.35"   Gusts: NA
Location:  37.99°N, 76.03°W
Report Text: KTGI 230017Z AUTO 22013KT 10SM CLR 08/M01 A3035 RMK AO1
Loading
Personal Weather Stations






























Interactive Weather Map New forecast layout! Learn more

10-Day Weather Forecast

Advertisements
Track Severe Weather on mobile